Time;durP1;ratioP1;P1;durP2;ratioP2;P2;SDS_P1;SDS_P2;PMS_P1;PMS_P2;Temp;Humidity;BMP_temperature;BMP_pressure;BME280_temperature;BME280_humidity;BME280_pressure;Samples;Min_cycle;Max_cycle;Signal;HPM_P1;HPM_P2
2022/12/02 00:00:41;;;;;;;;;;;;;;;5.52;90.90;102577.41;5082901;28;19971;-57
2022/12/02 00:03:10;;;;;;;;;;;;;;;5.53;90.82;102577.31;5086576;28;19923;-57
2022/12/02 00:05:35;;;;;;;;;;;;;;;5.53;90.87;102571.19;5081941;28;19924;-58
2022/12/02 00:08:09;;;;;;;;;;;;;;;5.54;91.09;102564.97;5085386;28;19916;-56
2022/12/02 00:10:36;;;;;;;;;;;;;;;5.54;91.01;102562.34;5080381;28;19923;-57
2022/12/02 00:13:10;;;;;;;;;;;;;;;5.54;91.03;102564.97;5084610;28;19916;-56
2022/12/02 00:15:36;;;;;;;;;;;;;;;5.55;90.86;102567.53;5079598;28;19939;-57
2022/12/02 00:18:01;;;;;;;;;;;;;;;5.54;91.07;102560.56;5078484;28;20287;-56
2022/12/02 00:20:26;;;;;;;;;;;;;;;5.54;90.89;102565.84;5083363;28;19971;-57
2022/12/02 00:22:51;;;;;;;;;;;;;;;5.54;91.04;102565.84;5085545;28;20424;-58
2022/12/02 00:25:16;;;;;;;;;;;;;;;5.54;91.06;102549.16;5081785;28;20349;-56
2022/12/02 00:27:42;;;;;;;;;;;;;;;5.51;90.94;102555.47;5085363;28;19982;-59
2022/12/02 00:30:07;;;;;;;;;;;;;;;5.49;90.67;102549.47;5078485;28;19923;-59
2022/12/02 00:32:32;;;;;;;;;;;;;;;5.50;90.72;102550.31;5083389;28;19916;-59
2022/12/02 00:34:57;;;;;;;;;;;;;;;5.49;90.63;102545.94;5075789;28;20020;-58
2022/12/02 00:37:22;;;;;;;;;;;;;;;5.46;90.70;102541.72;5080308;28;19923;-60
2022/12/02 00:39:48;;;;;;;;;;;;;;;5.42;90.50;102544.66;5077319;28;20045;-60
2022/12/02 00:42:13;;;;;;;;;;;;;;;5.37;90.25;102541.47;5077324;28;19919;-57
2022/12/02 00:47:22;;;;;;;;;;;;;;;5.32;90.53;102539.13;5079287;28;19984;-57
2022/12/02 00:49:47;;;;;;;;;;;;;;;5.32;90.15;102548.81;5077801;28;21519;-57
2022/12/02 00:52:12;;;;;;;;;;;;;;;5.30;90.23;102541.00;5080407;28;20000;-56
2022/12/02 00:54:37;;;;;;;;;;;;;;;5.28;90.29;102537.63;5081162;28;20494;-59
2022/12/02 00:57:02;;;;;;;;;;;;;;;5.27;90.64;102539.41;5079659;28;19955;-59
2022/12/02 00:59:27;;;;;;;;;;;;;;;5.24;90.54;102530.84;5087544;28;20318;-56
2022/12/02 01:01:53;;;;;;;;;;;;;;;5.20;90.07;102539.84;5074349;28;20102;-60
2022/12/02 01:04:18;;;;;;;;;;;;;;;5.17;90.09;102534.78;5081585;28;20481;-56
2022/12/02 01:06:43;;;;;;;;;;;;;;;5.12;89.99;102535.06;5085013;28;19916;-61
2022/12/02 01:09:08;;;;;;;;;;;;;;;5.08;90.09;102536.19;5077295;28;20011;-58
2022/12/02 01:11:33;;;;;;;;;;;;;;;4.99;89.92;102526.22;5084584;28;19922;-60
2022/12/02 01:13:58;;;;;;;;;;;;;;;4.97;90.24;102522.84;5088774;28;20330;-59
2022/12/02 01:16:24;;;;;;;;;;;;;;;4.91;90.06;102537.19;5085273;28;19923;-58
2022/12/02 01:18:49;;;;;;;;;;;;;;;4.86;89.86;102525.25;5089428;28;19916;-57
2022/12/02 01:21:14;;;;;;;;;;;;;;;4.81;90.04;102535.22;5082247;28;19939;-59
2022/12/02 01:23:39;;;;;;;;;;;;;;;4.80;90.24;102531.75;5085393;28;20399;-59
2022/12/02 01:26:04;;;;;;;;;;;;;;;4.72;90.34;102518.19;5084069;28;19926;-60
2022/12/02 01:28:30;;;;;;;;;;;;;;;4.70;90.58;102522.72;5084019;28;20375;-59
2022/12/02 01:30:55;;;;;;;;;;;;;;;4.71;90.68;102529.66;5083918;28;19928;-58
2022/12/02 01:33:20;;;;;;;;;;;;;;;4.66;90.75;102529.09;5088592;28;19924;-57
2022/12/02 01:35:45;;;;;;;;;;;;;;;4.66;90.48;102529.94;5084286;28;20031;-58
2022/12/02 01:38:10;;;;;;;;;;;;;;;4.69;90.62;102530.69;5087679;28;19938;-57
2022/12/02 01:40:36;;;;;;;;;;;;;;;4.71;90.78;102531.44;5084764;28;19920;-57
2022/12/02 01:43:01;;;;;;;;;;;;;;;4.70;90.81;102535.88;5083720;28;19928;-59
2022/12/02 01:45:26;;;;;;;;;;;;;;;4.72;91.07;102538.41;5087973;28;19916;-57
2022/12/02 01:47:52;;;;;;;;;;;;;;;4.71;90.89;102532.28;5084114;28;19917;-57
2022/12/02 01:50:18;;;;;;;;;;;;;;;4.71;90.90;102529.66;5085427;28;19923;-56
2022/12/02 01:52:43;;;;;;;;;;;;;;;4.71;90.78;102526.19;5087158;28;19927;-56
2022/12/02 01:55:11;;;;;;;;;;;;;;;4.66;90.40;102527.31;5082435;28;19927;-58
2022/12/02 01:57:36;;;;;;;;;;;;;;;4.62;90.50;102532.81;5085583;28;19920;-59
2022/12/02 02:00:02;;;;;;;;;;;;;;;4.58;90.14;102534.78;5084967;28;19935;-58
2022/12/02 02:02:32;;;;;;;;;;;;;;;4.58;90.25;102534.78;5080911;28;19923;-57
2022/12/02 02:05:01;;;;;;;;;;;;;;;4.56;90.41;102541.94;5080984;28;19920;-58
2022/12/02 02:07:26;;;;;;;;;;;;;;;4.56;90.27;102539.28;5077729;28;19924;-56
2022/12/02 02:09:52;;;;;;;;;;;;;;;4.56;90.20;102538.44;5082759;28;19941;-59
2022/12/02 02:12:17;;;;;;;;;;;;;;;4.54;90.23;102533.28;5081072;28;19916;-57
2022/12/02 02:14:43;;;;;;;;;;;;;;;4.54;90.29;102528.00;5085089;28;19920;-59
2022/12/02 02:17:08;;;;;;;;;;;;;;;4.52;90.26;102537.78;5079636;28;19931;-58
2022/12/02 02:19:33;;;;;;;;;;;;;;;4.48;90.22;102536.28;5087605;28;20054;-59
2022/12/02 02:22:00;;;;;;;;;;;;;;;4.44;90.02;102529.50;5085220;28;20019;-58
2022/12/02 02:24:25;;;;;;;;;;;;;;;4.42;89.70;102536.63;5087563;28;19938;-58
2022/12/02 02:26:51;;;;;;;;;;;;;;;4.40;89.81;102530.63;5084925;28;20389;-57
2022/12/02 02:29:16;;;;;;;;;;;;;;;4.40;89.77;102530.63;5083540;28;19923;-56
2022/12/02 02:31:41;;;;;;;;;;;;;;;4.42;89.74;102533.16;5083095;28;19916;-59
2022/12/02 02:34:06;;;;;;;;;;;;;;;4.42;89.78;102527.91;5082713;28;19917;-57
2022/12/02 02:36:32;;;;;;;;;;;;;;;4.41;89.53;102520.94;5084256;28;20000;-55
2022/12/02 02:38:58;;;;;;;;;;;;;;;4.37;88.91;102516.81;5084053;28;19998;-60
2022/12/02 02:41:23;;;;;;;;;;;;;;;4.32;88.71;102517.03;5086157;28;19927;-56
2022/12/02 02:43:48;;;;;;;;;;;;;;;4.30;88.45;102519.75;5085958;28;19930;-57
2022/12/02 02:46:14;;;;;;;;;;;;;;;4.29;88.44;102517.22;5080991;28;20004;-59
2022/12/02 02:48:40;;;;;;;;;;;;;;;4.28;88.52;102518.16;5084338;28;19920;-55
2022/12/02 02:51:07;;;;;;;;;;;;;;;4.26;88.46;102515.63;5086112;28;19961;-56
2022/12/02 02:53:32;;;;;;;;;;;;;;;4.25;88.17;102520.97;5084204;28;20463;-55
2022/12/02 02:55:58;;;;;;;;;;;;;;;4.24;88.01;102516.66;5085653;28;20003;-56
2022/12/02 02:58:24;;;;;;;;;;;;;;;4.23;88.14;102509.69;5079380;28;19916;-60
2022/12/02 03:00:52;;;;;;;;;;;;;;;4.18;88.12;102501.22;5077004;28;20372;-56
2022/12/02 03:03:19;;;;;;;;;;;;;;;4.15;87.98;102499.63;5085584;28;19916;-56
2022/12/02 03:05:45;;;;;;;;;;;;;;;4.14;87.75;102494.47;5088953;28;19962;-60
2022/12/02 03:08:10;;;;;;;;;;;;;;;4.13;87.69;102487.50;5083877;28;19951;-58
2022/12/02 03:10:36;;;;;;;;;;;;;;;4.12;87.85;102486.66;5086582;28;20385;-59
2022/12/02 03:13:01;;;;;;;;;;;;;;;4.13;87.85;102492.78;5082470;28;19916;-58
2022/12/02 03:15:27;;;;;;;;;;;;;;;4.14;88.11;102486.56;5089393;28;20451;-58
2022/12/02 03:17:53;;;;;;;;;;;;;;;4.14;87.90;102494.47;5085255;28;20472;-59
2022/12/02 03:20:19;;;;;;;;;;;;;;;4.15;87.95;102498.78;5088750;28;19956;-55
2022/12/02 03:22:45;;;;;;;;;;;;;;;4.16;87.77;102496.06;5083486;28;20011;-59
2022/12/02 03:25:10;;;;;;;;;;;;;;;4.15;87.58;102499.63;5089505;28;19988;-58
2022/12/02 03:27:36;;;;;;;;;;;;;;;4.15;87.58;102497.00;5080841;28;19916;-54
2022/12/02 03:30:01;;;;;;;;;;;;;;;4.15;87.87;102494.38;5086916;28;20442;-60
2022/12/02 03:32:27;;;;;;;;;;;;;;;4.13;87.62;102488.34;5082101;28;20418;-53
2022/12/02 03:34:52;;;;;;;;;;;;;;;4.13;87.82;102488.34;5086688;28;19912;-57
2022/12/02 03:37:18;;;;;;;;;;;;;;;4.13;87.77;102484.88;5079331;28;20011;-58
2022/12/02 03:39:43;;;;;;;;;;;;;;;4.12;87.64;102472.66;5089370;28;19969;-59
2022/12/02 03:42:08;;;;;;;;;;;;;;;4.09;87.60;102472.84;5081212;28;19923;-57
2022/12/02 03:44:33;;;;;;;;;;;;;;;4.09;87.80;102473.69;5082715;28;19999;-58
2022/12/02 03:46:59;;;;;;;;;;;;;;;4.08;87.83;102466.75;5077404;28;19962;-57
2022/12/02 03:49:24;;;;;;;;;;;;;;;4.09;87.49;102478.09;5086558;28;19991;-58
2022/12/02 03:51:50;;;;;;;;;;;;;;;4.07;87.80;102465.06;5085937;28;19927;-59
2022/12/02 03:54:15;;;;;;;;;;;;;;;4.09;87.71;102472.84;5087717;28;19916;-57
2022/12/02 03:56:41;;;;;;;;;;;;;;;4.10;87.80;102464.88;5084623;28;19927;-57
2022/12/02 03:59:07;;;;;;;;;;;;;;;4.06;87.81;102468.63;5082552;28;20363;-59
2022/12/02 04:01:32;;;;;;;;;;;;;;;4.02;87.53;102465.28;5084600;28;19926;-59
2022/12/02 04:03:57;;;;;;;;;;;;;;;4.01;87.74;102468.00;5087855;28;19916;-57
2022/12/02 04:06:23;;;;;;;;;;;;;;;3.97;87.59;102474.38;5082991;28;20383;-59
2022/12/02 04:08:48;;;;;;;;;;;;;;;3.93;87.60;102465.84;5084364;28;19959;-59
2022/12/02 04:11:13;;;;;;;;;;;;;;;3.90;87.59;102459.91;5083230;28;19930;-57
2022/12/02 04:13:38;;;;;;;;;;;;;;;3.89;87.77;102459.06;5085228;28;20314;-58
2022/12/02 04:16:04;;;;;;;;;;;;;;;3.88;87.79;102454.75;5089485;28;19912;-57
2022/12/02 04:18:29;;;;;;;;;;;;;;;3.89;87.85;102450.34;5083043;28;19977;-58
2022/12/02 04:20:54;;;;;;;;;;;;;;;3.90;87.72;102454.66;5085773;28;19924;-58
2022/12/02 04:23:19;;;;;;;;;;;;;;;3.86;87.92;102453.13;5078403;28;20470;-58
2022/12/02 04:25:44;;;;;;;;;;;;;;;3.87;87.92;102455.69;5082859;28;19920;-57
2022/12/02 04:28:10;;;;;;;;;;;;;;;3.84;87.72;102466.38;5080364;28;19923;-58
2022/12/02 04:30:35;;;;;;;;;;;;;;;3.81;87.84;102463.91;5079167;28;21068;-59
2022/12/02 04:33:00;;;;;;;;;;;;;;;3.77;87.79;102453.66;5076591;28;19920;-58
2022/12/02 04:35:25;;;;;;;;;;;;;;;3.73;87.66;102464.31;5074250;28;19916;-59
2022/12/02 04:37:52;;;;;;;;;;;;;;;3.72;87.66;102457.38;5079070;28;19985;-57
2022/12/02 04:40:18;;;;;;;;;;;;;;;3.72;87.85;102456.53;5078201;28;20148;-59
2022/12/02 04:42:43;;;;;;;;;;;;;;;3.71;87.79;102442.53;5081297;28;20260;-60
2022/12/02 04:45:09;;;;;;;;;;;;;;;3.69;87.62;102439.16;5082411;28;19931;-58
2022/12/02 04:47:34;;;;;;;;;;;;;;;3.70;87.75;102442.63;5084998;28;20383;-58
2022/12/02 04:49:59;;;;;;;;;;;;;;;3.70;87.59;102442.63;5087893;28;20276;-58
2022/12/02 04:52:24;;;;;;;;;;;;;;;3.68;87.46;102437.47;5085134;28;19920;-56
2022/12/02 04:54:49;;;;;;;;;;;;;;;3.68;87.80;102434.84;5087962;28;19916;-59
2022/12/02 04:57:14;;;;;;;;;;;;;;;3.69;87.43;102435.69;5087484;28;19923;-57
2022/12/02 04:59:40;;;;;;;;;;;;;;;3.71;87.52;102437.28;5086711;28;19916;-58
2022/12/02 05:02:05;;;;;;;;;;;;;;;3.72;87.46;102432.88;5088004;28;19923;-59
2022/12/02 05:04:30;;;;;;;;;;;;;;;3.72;87.29;102427.63;5086154;28;20420;-57
2022/12/02 05:06:56;;;;;;;;;;;;;;;3.72;87.23;102428.47;5089055;28;19916;-59
2022/12/02 05:09:21;;;;;;;;;;;;;;;3.71;87.10;102416.28;5081152;28;20417;-58
2022/12/02 05:11:46;;;;;;;;;;;;;;;3.72;87.06;102419.75;5085921;28;19916;-57
2022/12/02 05:14:11;;;;;;;;;;;;;;;3.72;86.89;102417.13;5083174;28;20512;-60
2022/12/02 05:16:36;;;;;;;;;;;;;;;3.72;86.83;102417.97;5085082;28;19923;-59
2022/12/02 05:19:01;;;;;;;;;;;;;;;3.65;86.76;102411.38;5087710;28;20007;-61
2022/12/02 05:21:27;;;;;;;;;;;;;;;3.72;86.41;102414.50;5087448;28;19927;-60
2022/12/02 05:23:52;;;;;;;;;;;;;;;3.71;86.43;102431.19;5087861;28;19916;-59
2022/12/02 05:26:17;;;;;;;;;;;;;;;3.69;86.29;102428.66;5084123;28;20441;-57
2022/12/02 05:28:42;;;;;;;;;;;;;;;3.69;86.39;102428.66;5087847;28;19923;-60
2022/12/02 05:31:07;;;;;;;;;;;;;;;3.69;86.08;102412.91;5085264;28;19920;-56
2022/12/02 05:33:33;;;;;;;;;;;;;;;3.70;86.04;102405.84;5085974;28;19916;-59
2022/12/02 05:35:58;;;;;;;;;;;;;;;3.71;86.11;102411.03;5080809;28;19916;-57
2022/12/02 05:38:23;;;;;;;;;;;;;;;3.71;85.96;102416.28;5085850;28;19924;-57
2022/12/02 05:40:50;;;;;;;;;;;;;;;3.71;85.91;102404.91;5081486;28;19931;-56
2022/12/02 05:43:15;;;;;;;;;;;;;;;3.70;85.89;102411.09;5080744;28;20513;-59
2022/12/02 05:45:40;;;;;;;;;;;;;;;3.70;85.88;102411.09;5082771;28;20027;-57
2022/12/02 05:48:09;;;;;;;;;;;;;;;3.67;85.74;102411.28;5089537;28;20299;-59
2022/12/02 05:50:34;;;;;;;;;;;;;;;3.66;85.77;102414.84;5084073;28;19925;-56
2022/12/02 05:53:00;;;;;;;;;;;;;;;3.66;85.56;102405.19;5082636;28;19916;-59
2022/12/02 05:55:26;;;;;;;;;;;;;;;3.66;85.76;102407.81;5086809;28;20376;-60
2022/12/02 05:57:53;;;;;;;;;;;;;;;3.65;85.59;102410.53;5081878;28;19957;-56
2022/12/02 06:00:22;;;;;;;;;;;;;;;3.63;85.49;102412.41;5081168;28;19920;-57
2022/12/02 06:02:57;;;;;;;;;;;;;;;3.60;85.53;102421.31;5084495;28;19927;-60
2022/12/02 06:05:23;;;;;;;;;;;;;;;3.57;85.40;102416.22;5081589;28;19916;-60
2022/12/02 06:07:50;;;;;;;;;;;;;;;3.57;85.57;102397.00;5076768;28;19923;-60
2022/12/02 06:10:23;;;;;;;;;;;;;;;3.55;85.60;102406.75;5077624;28;19919;-61
2022/12/02 06:12:49;;;;;;;;;;;;;;;3.53;85.46;102404.22;5082028;28;19970;-56
2022/12/02 06:15:14;;;;;;;;;;;;;;;3.53;85.85;102409.47;5079434;28;19927;-57
2022/12/02 06:17:40;;;;;;;;;;;;;;;3.53;85.73;102408.63;5080839;28;19916;-59
2022/12/02 06:20:05;;;;;;;;;;;;;;;3.52;85.83;102399.88;5084854;28;19916;-59
2022/12/02 06:22:32;;;;;;;;;;;;;;;3.54;86.16;102407.69;5084331;28;19919;-59
2022/12/02 06:24:59;;;;;;;;;;;;;;;3.54;86.30;102405.91;5085526;28;20045;-56
2022/12/02 06:27:26;;;;;;;;;;;;;;;3.57;86.33;102404.88;5079768;28;20018;-56
2022/12/02 06:29:52;;;;;;;;;;;;;;;3.56;86.32;102405.81;5080948;28;20388;-56
2022/12/02 06:32:19;;;;;;;;;;;;;;;3.55;86.45;102402.34;5082111;28;19999;-59
2022/12/02 06:34:45;;;;;;;;;;;;;;;3.54;86.62;102399.81;5082750;28;20010;-59
2022/12/02 06:37:10;;;;;;;;;;;;;;;3.53;86.75;102408.63;5086005;28;20331;-57
2022/12/02 06:39:37;;;;;;;;;;;;;;;3.52;86.58;102413.03;5082425;28;19923;-56
2022/12/02 06:42:06;;;;;;;;;;;;;;;3.51;86.74;102405.22;5085787;28;20362;-59
2022/12/02 06:47:31;;;;;;;;;;;;;;;3.52;86.77;102410.41;5085061;28;19939;-56
2022/12/02 06:49:56;;;;;;;;;;;;;;;3.52;86.87;102406.91;5085895;28;19923;-58
2022/12/02 06:52:21;;;;;;;;;;;;;;;3.51;87.01;102403.44;5083000;28;19924;-59
2022/12/02 06:54:47;;;;;;;;;;;;;;;3.48;86.76;102400.16;5085967;28;19959;-60
2022/12/02 06:57:15;;;;;;;;;;;;;;;3.47;86.74;102404.56;5084511;28;19927;-58
2022/12/02 06:59:42;;;;;;;;;;;;;;;3.46;86.73;102402.00;5080745;28;19947;-59
2022/12/02 07:02:27;;;;;;;;;;;;;;;3.47;86.95;102406.31;5086124;28;19926;-58
2022/12/02 07:04:53;;;;;;;;;;;;;;;3.46;86.85;102402.00;5078578;28;19959;-59
2022/12/02 07:07:18;;;;;;;;;;;;;;;3.47;86.84;102409.81;5080824;28;19920;-59
2022/12/02 07:10:01;;;;;;;;;;;;;;;3.46;86.82;102413.34;5079707;28;19923;-58
2022/12/02 07:12:26;;;;;;;;;;;;;;;3.46;86.78;102409.88;5081991;28;19955;-58
2022/12/02 07:14:55;;;;;;;;;;;;;;;3.46;87.01;102415.97;5080794;28;19963;-59
2022/12/02 07:17:28;;;;;;;;;;;;;;;3.43;86.78;102414.34;5080559;28;19920;-58
2022/12/02 07:20:05;;;;;;;;;;;;;;;3.43;86.92;102418.75;5083426;28;20342;-59
2022/12/02 07:22:43;;;;;;;;;;;;;;;3.44;86.92;102420.47;5082617;28;19925;-57
2022/12/02 07:25:08;;;;;;;;;;;;;;;3.46;87.10;102420.38;5076322;28;20396;-61
2022/12/02 07:27:38;;;;;;;;;;;;;;;3.47;87.11;102416.81;5079594;28;20359;-58
2022/12/02 07:30:24;;;;;;;;;;;;;;;3.47;86.84;102424.69;5082855;28;19931;-60
2022/12/02 07:32:49;;;;;;;;;;;;;;;3.48;87.21;102419.38;5079460;28;19916;-56
2022/12/02 07:35:14;;;;;;;;;;;;;;;3.48;87.21;102422.00;5083653;28;19920;-58
2022/12/02 07:37:40;;;;;;;;;;;;;;;3.47;87.29;102414.19;5084148;28;19924;-60
2022/12/02 07:40:06;;;;;;;;;;;;;;;3.46;87.29;102415.97;5083683;28;19924;-59
2022/12/02 07:42:31;;;;;;;;;;;;;;;3.46;87.55;102418.59;5080518;28;20033;-57
2022/12/02 07:44:56;;;;;;;;;;;;;;;3.47;87.58;102416.81;5081141;28;20022;-57
2022/12/02 07:47:21;;;;;;;;;;;;;;;3.46;87.68;102412.50;5086098;28;20197;-56
2022/12/02 07:49:46;;;;;;;;;;;;;;;3.45;87.76;102411.66;5087509;28;19973;-59
2022/12/02 07:52:12;;;;;;;;;;;;;;;3.45;87.66;102418.69;5082242;28;19923;-56
2022/12/02 07:54:37;;;;;;;;;;;;;;;3.43;87.76;102421.38;5078060;28;20440;-57
2022/12/02 07:57:03;;;;;;;;;;;;;;;3.43;87.63;102419.59;5084690;28;19916;-58
2022/12/02 07:59:28;;;;;;;;;;;;;;;3.42;87.74;102420.53;5078892;28;19999;-60
2022/12/02 08:01:53;;;;;;;;;;;;;;;3.41;87.75;102418.84;5079236;28;20376;-57
2022/12/02 08:04:18;;;;;;;;;;;;;;;3.41;87.89;102424.09;5084205;28;19955;-61
2022/12/02 08:06:43;;;;;;;;;;;;;;;3.40;87.98;102424.19;5078743;28;20406;-58
2022/12/02 08:09:09;;;;;;;;;;;;;;;3.38;88.21;102423.44;5081149;28;19916;-60
2022/12/02 08:11:34;;;;;;;;;;;;;;;3.36;88.03;102428.78;5073956;28;19963;-59
2022/12/02 08:13:59;;;;;;;;;;;;;;;3.33;88.33;102431.56;5081045;28;19963;-59
2022/12/02 08:16:24;;;;;;;;;;;;;;;3.34;88.43;102429.78;5078323;28;19916;-57
2022/12/02 08:18:49;;;;;;;;;;;;;;;3.34;88.36;102427.16;5080180;28;20564;-59
2022/12/02 08:21:15;;;;;;;;;;;;;;;3.34;88.61;102421.91;5081014;28;19970;-60
2022/12/02 08:23:40;;;;;;;;;;;;;;;3.32;88.54;102418.53;5082378;28;19916;-59
2022/12/02 08:26:05;;;;;;;;;;;;;;;3.32;88.53;102419.38;5087146;28;19924;-57
2022/12/02 08:28:30;;;;;;;;;;;;;;;3.33;88.51;102414.97;5086856;28;20010;-59
2022/12/02 08:30:55;;;;;;;;;;;;;;;3.32;88.54;102422.00;5087150;28;19963;-56
2022/12/02 08:33:21;;;;;;;;;;;;;;;3.32;88.61;102416.75;5084670;28;20554;-56
2022/12/02 08:35:46;;;;;;;;;;;;;;;3.31;88.57;102422.94;5081594;28;19962;-57
2022/12/02 08:38:11;;;;;;;;;;;;;;;3.31;88.64;102414.22;5079853;28;19912;-60
2022/12/02 08:40:36;;;;;;;;;;;;;;;3.32;88.71;102415.91;5078864;28;19966;-57
2022/12/02 08:43:02;;;;;;;;;;;;;;;3.32;88.69;102419.38;5088037;28;19912;-56
2022/12/02 08:45:27;;;;;;;;;;;;;;;3.34;88.64;102424.53;5081158;28;19966;-60
2022/12/02 08:47:53;;;;;;;;;;;;;;;3.33;88.82;102418.44;5085529;28;19955;-56
2022/12/02 08:50:18;;;;;;;;;;;;;;;3.35;88.69;102423.59;5085898;28;19919;-56
2022/12/02 08:52:43;;;;;;;;;;;;;;;3.33;88.91;102422.84;5080653;28;19916;-61
2022/12/02 08:55:08;;;;;;;;;;;;;;;3.36;89.04;102417.41;5085082;28;20462;-57
2022/12/02 08:57:33;;;;;;;;;;;;;;;3.36;88.94;102415.63;5085684;28;19957;-60
2022/12/02 08:59:58;;;;;;;;;;;;;;;3.36;89.12;102413.00;5080332;28;20528;-56
2022/12/02 09:02:24;;;;;;;;;;;;;;;3.34;89.13;102416.66;5081958;28;19920;-59
2022/12/02 09:04:49;;;;;;;;;;;;;;;3.33;89.40;102420.22;5082032;28;19924;-56
2022/12/02 09:07:14;;;;;;;;;;;;;;;3.31;89.62;102419.47;5081528;28;20379;-59
2022/12/02 09:09:39;;;;;;;;;;;;;;;3.28;89.79;102415.22;5086022;28;19919;-57
2022/12/02 09:12:05;;;;;;;;;;;;;;;3.26;89.95;102414.47;5081537;28;20026;-57
2022/12/02 09:14:30;;;;;;;;;;;;;;;3.25;89.77;102423.28;5083294;28;19927;-58
2022/12/02 09:16:55;;;;;;;;;;;;;;;3.24;90.17;102421.59;5086722;28;20383;-59
2022/12/02 09:19:20;;;;;;;;;;;;;;;3.23;90.07;102416.41;5082921;28;20136;-57
2022/12/02 09:21:46;;;;;;;;;;;;;;;3.22;90.46;102425.22;5085446;28;19928;-59
2022/12/02 09:24:11;;;;;;;;;;;;;;;3.21;90.52;102421.75;5085672;28;19916;-55
2022/12/02 09:26:36;;;;;;;;;;;;;;;3.22;90.66;102417.34;5080983;28;19922;-58
2022/12/02 09:29:01;;;;;;;;;;;;;;;3.23;90.83;102417.25;5081847;28;19916;-61
2022/12/02 09:31:27;;;;;;;;;;;;;;;3.22;90.95;102412.09;5085576;28;19917;-59
2022/12/02 09:33:52;;;;;;;;;;;;;;;3.22;91.08;102412.94;5081779;28;19996;-53
2022/12/02 09:36:17;;;;;;;;;;;;;;;3.23;91.19;102409.38;5086194;28;19958;-56
2022/12/02 09:38:42;;;;;;;;;;;;;;;3.25;91.28;102406.69;5086036;28;19920;-58
2022/12/02 09:41:07;;;;;;;;;;;;;;;3.24;91.53;102402.34;5083397;28;19971;-59
2022/12/02 09:43:33;;;;;;;;;;;;;;;3.26;91.53;102401.34;5087041;28;19999;-61
2022/12/02 09:45:58;;;;;;;;;;;;;;;3.27;91.46;102402.19;5086429;28;19951;-59
2022/12/02 09:48:24;;;;;;;;;;;;;;;3.29;91.41;102401.16;5090935;28;19974;-59
2022/12/02 09:50:49;;;;;;;;;;;;;;;3.28;91.28;102401.25;5083369;28;19920;-59
2022/12/02 09:53:16;;;;;;;;;;;;;;;3.27;91.58;102408.28;5090002;28;20020;-58
2022/12/02 09:55:41;;;;;;;;;;;;;;;3.27;91.51;102408.28;5086691;28;19920;-59
2022/12/02 09:58:17;;;;;;;;;;;;;;;3.27;91.78;102412.69;5077742;28;19970;-56
2022/12/02 10:00:43;;;;;;;;;;;;;;;3.26;91.91;102409.22;5082494;28;19935;-58
2022/12/02 10:03:09;;;;;;;;;;;;;;;3.25;91.99;102410.16;5084763;28;19916;-56
2022/12/02 10:05:35;;;;;;;;;;;;;;;3.25;91.74;102404.91;5079290;28;19977;-56
2022/12/02 10:08:00;;;;;;;;;;;;;;;3.24;91.87;102400.59;5079048;28;19916;-56
2022/12/02 10:10:32;;;;;;;;;;;;;;;3.24;91.96;102400.59;5083854;28;19923;-58
2022/12/02 10:12:57;;;;;;;;;;;;;;;3.24;92.04;102400.59;5082901;28;20012;-56
2022/12/02 10:15:25;;;;;;;;;;;;;;;3.23;92.00;102398.03;5087953;28;20011;-61
2022/12/02 10:17:51;;;;;;;;;;;;;;;3.23;92.26;102396.25;5083546;28;19916;-59
2022/12/02 10:20:19;;;;;;;;;;;;;;;3.25;92.26;102402.28;5082745;28;20387;-57
2022/12/02 10:23:03;;;;;;;;;;;;;;;3.24;92.00;102391.84;5083258;28;19966;-59
2022/12/02 10:25:29;;;;;;;;;;;;;;;3.25;92.21;102393.56;5078746;28;19923;-59
2022/12/02 10:27:54;;;;;;;;;;;;;;;3.24;92.40;102389.22;5086476;28;20034;-60
2022/12/02 10:30:24;;;;;;;;;;;;;;;3.25;92.15;102388.31;5086300;28;20025;-56
2022/12/02 10:32:58;;;;;;;;;;;;;;;3.26;92.30;102393.47;5080963;28;19916;-56
2022/12/02 10:35:24;;;;;;;;;;;;;;;3.27;92.40;102382.03;5082553;28;20016;-58
2022/12/02 10:37:49;;;;;;;;;;;;;;;3.29;92.61;102379.31;5079844;28;19951;-56
2022/12/02 10:40:16;;;;;;;;;;;;;;;3.30;92.32;102376.59;5084988;28;19943;-57
2022/12/02 10:42:42;;;;;;;;;;;;;;;3.31;92.47;102375.66;5079585;28;19920;-55
2022/12/02 10:45:21;;;;;;;;;;;;;;;3.32;92.41;102369.47;5082955;28;19926;-58
2022/12/02 10:47:47;;;;;;;;;;;;;;;3.32;92.39;102373.91;5077944;28;19921;-58
2022/12/02 10:50:15;;;;;;;;;;;;;;;3.32;92.16;102368.63;5087322;28;20387;-58
2022/12/02 10:52:48;;;;;;;;;;;;;;;3.34;92.25;102369.41;5086650;28;20019;-60
2022/12/02 10:55:14;;;;;;;;;;;;;;;3.37;92.40;102364.81;5082008;28;19916;-58
2022/12/02 10:57:41;;;;;;;;;;;;;;;3.38;92.10;102365.66;5078669;28;20682;-60
2022/12/02 11:00:12;;;;;;;;;;;;;;;3.39;92.24;102367.34;5083481;28;19920;-56
2022/12/02 11:02:44;;;;;;;;;;;;;;;3.40;92.19;102364.63;5088382;28;19923;-58
2022/12/02 11:05:13;;;;;;;;;;;;;;;3.41;92.18;102357.59;5087872;28;20000;-59
2022/12/02 11:07:39;;;;;;;;;;;;;;;3.38;91.77;102356.00;5088345;28;19970;-57
2022/12/02 11:10:04;;;;;;;;;;;;;;;3.40;91.97;102359.38;5084165;28;19916;-59
2022/12/02 11:12:33;;;;;;;;;;;;;;;3.39;91.86;102360.31;5084243;28;19917;-58
2022/12/02 11:14:58;;;;;;;;;;;;;;;3.40;91.83;102351.50;5083470;28;19917;-58
2022/12/02 11:17:42;;;;;;;;;;;;;;;3.43;91.78;102358.38;5088795;28;20012;-59
2022/12/02 11:20:39;;;;;;;;;;;;;;;3.45;91.45;102353.03;5087692;28;19916;-57
2022/12/02 11:23:14;;;;;;;;;;;;;;;3.46;91.72;102355.56;5056506;28;19912;-58
2022/12/02 11:25:42;;;;;;;;;;;;;;;3.48;91.52;102358.13;5088750;28;19942;-59
2022/12/02 11:28:14;;;;;;;;;;;;;;;3.49;91.12;102354.56;5082935;28;19922;-59
2022/12/02 11:30:39;;;;;;;;;;;;;;;3.47;91.18;102356.41;5082095;28;20293;-57
2022/12/02 11:33:09;;;;;;;;;;;;;;;3.45;91.13;102353.88;5085592;28;20410;-58
2022/12/02 11:35:53;;;;;;;;;;;;;;;3.45;90.97;102358.28;5082632;28;19919;-57
2022/12/02 11:38:19;;;;;;;;;;;;;;;3.43;91.08;102353.97;5079391;28;19951;-59
2022/12/02 11:40:44;;;;;;;;;;;;;;;3.42;90.64;102351.41;5082231;28;19959;-62
2022/12/02 11:43:28;;;;;;;;;;;;;;;3.41;90.65;102353.19;5081546;28;20336;-57
2022/12/02 11:45:55;;;;;;;;;;;;;;;3.41;90.38;102353.19;5086570;28;19912;-57
2022/12/02 11:48:20;;;;;;;;;;;;;;;3.41;90.32;102345.31;5089579;28;19955;-57
2022/12/02 11:50:46;;;;;;;;;;;;;;;3.42;90.40;102347.00;5083745;28;19951;-59
2022/12/02 11:53:19;;;;;;;;;;;;;;;3.43;90.25;102348.72;5084544;28;19942;-57
2022/12/02 11:55:46;;;;;;;;;;;;;;;3.42;90.31;102344.38;5086844;28;19920;-57
2022/12/02 11:58:17;;;;;;;;;;;;;;;3.41;89.96;102337.44;5074868;28;19985;-58
2022/12/02 12:00:58;;;;;;;;;;;;;;;3.42;89.84;102333.88;5085926;28;19935;-58
2022/12/02 12:03:24;;;;;;;;;;;;;;;3.43;89.60;102330.31;5084740;28;19959;-56
2022/12/02 12:06:07;;;;;;;;;;;;;;;3.42;89.59;102323.38;5081603;28;19948;-59
2022/12/02 12:08:32;;;;;;;;;;;;;;;3.43;89.29;102329.47;5073717;28;19920;-59
2022/12/02 12:11:16;;;;;;;;;;;;;;;3.41;89.43;102320.84;5081883;28;20380;-57
2022/12/02 12:14:00;;;;;;;;;;;;;;;3.39;89.47;102328.81;5086113;28;19921;-58
2022/12/02 12:16:26;;;;;;;;;;;;;;;3.37;89.39;102335.94;5082898;28;19951;-58
2022/12/02 12:18:51;;;;;;;;;;;;;;;3.36;89.37;102330.78;5084951;28;20368;-60
2022/12/02 12:21:29;;;;;;;;;;;;;;;3.36;89.14;102330.78;5084704;28;19928;-57
2022/12/02 12:23:54;;;;;;;;;;;;;;;3.35;89.09;102322.03;5086999;28;19912;-60
2022/12/02 12:26:30;;;;;;;;;;;;;;;3.36;88.93;102325.53;5086847;28;19916;-58
2022/12/02 12:28:59;;;;;;;;;;;;;;;3.38;89.48;102321.03;5085042;28;19923;-60
2022/12/02 12:31:24;;;;;;;;;;;;;;;3.38;89.04;102315.78;5087520;28;20517;-58
2022/12/02 12:33:50;;;;;;;;;;;;;;;3.37;88.98;102314.94;5080147;28;20019;-60
2022/12/02 12:36:15;;;;;;;;;;;;;;;3.39;89.05;102314.84;5083585;28;19923;-59
2022/12/02 12:38:40;;;;;;;;;;;;;;;3.39;89.35;102315.69;5077282;28;19921;-56
2022/12/02 12:41:05;;;;;;;;;;;;;;;3.38;88.97;102316.63;5086240;28;20014;-60
2022/12/02 12:43:31;;;;;;;;;;;;;;;3.36;88.72;102305.38;5086095;28;19923;-59
2022/12/02 12:45:56;;;;;;;;;;;;;;;3.37;89.07;102320.19;5087577;28;19939;-55
2022/12/02 12:48:21;;;;;;;;;;;;;;;3.39;89.16;102301.72;5086733;28;20022;-59
2022/12/02 12:50:46;;;;;;;;;;;;;;;3.42;89.16;102304.16;5081390;28;19927;-57